AFL2182 UIBB-URSS
Flight info
| Callsign | AFL2182 |
|---|---|
| Flight time | N/A |
| Altitude | 34000 |
| Route | ASBOK6S ASBOK B151 KOTIB W174 TISBU W176 ROVNO B151 KESED B926 ODIDA B808 DIBUR/K0846F360 B808 DAKIN T586 ALABA L988 DIMPA/K0859F380 L988 OBATA G487 BINOL BINOL1L |
| Aircraft | A320/M-SDE3FGHIRWY/LB1 |
Departure
| Time | 2026-05-06 12:42 |
|---|---|
| Airport | Bratsk Airport (UIBB) |
Arrival
| Time | N/A |
|---|---|
| Airport | Sochi International Airport (URSS) |
| Time | Latitude | Longitude | Altitude | Speed | Heading |
|---|---|---|---|---|---|
| 2026-05-06 12:28 | 56.36542 | 101.70466 | 1611 ft | 0 kts | 295° |
| 2026-05-06 12:36 | 56.36553 | 101.70432 | 1619 ft | 7 kts | 306° |
| 2026-05-06 12:36 | 56.36597 | 101.70433 | 1616 ft | 9 kts | 22° |
| 2026-05-06 12:36 | 56.36648 | 101.70474 | 1613 ft | 7 kts | 24° |
| 2026-05-06 12:36 | 56.36686 | 101.70504 | 1614 ft | 5 kts | 24° |
| 2026-05-06 12:37 | 56.36721 | 101.70535 | 1616 ft | 10 kts | 26° |
| 2026-05-06 12:37 | 56.36787 | 101.70592 | 1608 ft | 10 kts | 26° |
| 2026-05-06 12:37 | 56.36841 | 101.70617 | 1620 ft | 7 kts | 344° |
| 2026-05-06 12:37 | 56.36881 | 101.70530 | 1620 ft | 14 kts | 300° |
| 2026-05-06 12:38 | 56.36920 | 101.70374 | 1614 ft | 16 kts | 295° |
| 2026-05-06 12:38 | 56.36975 | 101.70169 | 1612 ft | 18 kts | 295° |
| 2026-05-06 12:38 | 56.37036 | 101.69930 | 1613 ft | 25 kts | 295° |
| 2026-05-06 12:38 | 56.37111 | 101.69637 | 1618 ft | 27 kts | 294° |
| 2026-05-06 12:39 | 56.37191 | 101.69326 | 1613 ft | 28 kts | 295° |
| 2026-05-06 12:39 | 56.37273 | 101.69010 | 1614 ft | 28 kts | 295° |
| 2026-05-06 12:39 | 56.37353 | 101.68699 | 1610 ft | 27 kts | 295° |
| 2026-05-06 12:39 | 56.37432 | 101.68385 | 1615 ft | 28 kts | 294° |
| 2026-05-06 12:40 | 56.37489 | 101.68085 | 1613 ft | 18 kts | 274° |
| 2026-05-06 12:40 | 56.37511 | 101.68010 | 1611 ft | 5 kts | 52° |
| 2026-05-06 12:40 | 56.37519 | 101.68051 | 1612 ft | 5 kts | 83° |
| 2026-05-06 12:41 | 56.37514 | 101.68081 | 1609 ft | 0 kts | 112° |
| 2026-05-06 12:41 | 56.37498 | 101.68147 | 1615 ft | 31 kts | 114° |
| 2026-05-06 12:41 | 56.37294 | 101.68940 | 1618 ft | 106 kts | 115° |
| 2026-05-06 12:42 | 56.36895 | 101.70484 | 1611 ft | 162 kts | 115° |
| 2026-05-06 12:42 | 56.36361 | 101.72501 | 1864 ft | 190 kts | 116° |
| 2026-05-06 12:42 | 56.35801 | 101.74661 | 2733 ft | 189 kts | 119° |
| 2026-05-06 12:42 | 56.35228 | 101.76886 | 3050 ft | 208 kts | 118° |
| 2026-05-06 12:43 | 56.34593 | 101.79361 | 3432 ft | 223 kts | 118° |
| 2026-05-06 12:43 | 56.33937 | 101.81926 | 4063 ft | 228 kts | 118° |
| 2026-05-06 12:43 | 56.33263 | 101.84542 | 4718 ft | 232 kts | 118° |
| 2026-05-06 12:43 | 56.32572 | 101.87203 | 5366 ft | 236 kts | 118° |
| 2026-05-06 12:44 | 56.31868 | 101.89903 | 6027 ft | 240 kts | 118° |
| 2026-05-06 12:44 | 56.31104 | 101.92632 | 6493 ft | 252 kts | 128° |
| 2026-05-06 12:44 | 56.29766 | 101.94778 | 6748 ft | 266 kts | 158° |
| 2026-05-06 12:44 | 56.27963 | 101.95444 | 7283 ft | 268 kts | 188° |
| 2026-05-06 12:45 | 56.26216 | 101.94430 | 7944 ft | 266 kts | 216° |
| 2026-05-06 12:45 | 56.24985 | 101.92011 | 8632 ft | 265 kts | 245° |
| 2026-05-06 12:45 | 56.24456 | 101.85452 | 10128 ft | 269 kts | 267° |
| 2026-05-06 12:46 | 56.24355 | 101.81967 | 10380 ft | 291 kts | 267° |
| 2026-05-06 12:46 | 56.24242 | 101.78192 | 10506 ft | 313 kts | 267° |
| 2026-05-06 12:46 | 56.24115 | 101.74149 | 10643 ft | 334 kts | 267° |
| 2026-05-06 12:46 | 56.23972 | 101.69870 | 10822 ft | 351 kts | 266° |
| 2026-05-06 12:47 | 56.23820 | 101.65447 | 11323 ft | 357 kts | 267° |
| 2026-05-06 12:47 | 56.23664 | 101.60960 | 11886 ft | 361 kts | 267° |
| 2026-05-06 12:47 | 56.23507 | 101.56431 | 12477 ft | 365 kts | 267° |
| 2026-05-06 12:47 | 56.23345 | 101.51861 | 13050 ft | 368 kts | 267° |
| 2026-05-06 12:48 | 56.23178 | 101.47250 | 13642 ft | 371 kts | 267° |
| 2026-05-06 12:48 | 56.23009 | 101.42617 | 14224 ft | 372 kts | 268° |
| 2026-05-06 12:48 | 56.22840 | 101.37955 | 14719 ft | 375 kts | 268° |
| 2026-05-06 12:48 | 56.22669 | 101.33262 | 15193 ft | 378 kts | 268° |
| 2026-05-06 12:49 | 56.22492 | 101.28535 | 15651 ft | 381 kts | 268° |
| 2026-05-06 12:49 | 56.22313 | 101.23750 | 16106 ft | 384 kts | 268° |
| 2026-05-06 12:49 | 56.22133 | 101.18944 | 16573 ft | 388 kts | 268° |
| 2026-05-06 12:49 | 56.21950 | 101.14095 | 17022 ft | 391 kts | 268° |
| 2026-05-06 12:50 | 56.21764 | 101.09210 | 17459 ft | 394 kts | 268° |
| 2026-05-06 12:50 | 56.21576 | 101.04287 | 17888 ft | 397 kts | 268° |
| 2026-05-06 12:50 | 56.21381 | 100.99312 | 18312 ft | 400 kts | 268° |
| 2026-05-06 12:50 | 56.21183 | 100.94316 | 18685 ft | 403 kts | 268° |
| 2026-05-06 12:51 | 56.20977 | 100.89291 | 19078 ft | 405 kts | 268° |
| 2026-05-06 12:51 | 56.20766 | 100.84230 | 19469 ft | 407 kts | 268° |
| 2026-05-06 12:51 | 56.20554 | 100.79149 | 19852 ft | 409 kts | 268° |
| 2026-05-06 12:51 | 56.20341 | 100.74045 | 20240 ft | 411 kts | 268° |
| 2026-05-06 12:52 | 56.20127 | 100.68913 | 20617 ft | 413 kts | 268° |
| 2026-05-06 12:52 | 56.19915 | 100.63831 | 20988 ft | 414 kts | 268° |
| 2026-05-06 12:52 | 56.19697 | 100.58663 | 21349 ft | 416 kts | 268° |
| 2026-05-06 12:52 | 56.19476 | 100.53465 | 21696 ft | 418 kts | 268° |
| 2026-05-06 12:53 | 56.19249 | 100.48252 | 22039 ft | 420 kts | 267° |
| 2026-05-06 12:53 | 56.19017 | 100.43009 | 22380 ft | 422 kts | 267° |
| 2026-05-06 12:53 | 56.18781 | 100.37741 | 22730 ft | 424 kts | 267° |
| 2026-05-06 12:53 | 56.18542 | 100.32452 | 23063 ft | 426 kts | 267° |
| 2026-05-06 12:54 | 56.18304 | 100.27154 | 23426 ft | 426 kts | 268° |
| 2026-05-06 12:54 | 56.18062 | 100.21843 | 23756 ft | 427 kts | 268° |
| 2026-05-06 12:54 | 56.17812 | 100.16523 | 24048 ft | 428 kts | 268° |
| 2026-05-06 12:54 | 56.17645 | 100.12998 | 24238 ft | 429 kts | 268° |